Chisholm Hibbing Airport Hibbing US
ICAO: KHIB
IATA: HIB
Category: Large
Scheduled Services: Yes

Elevation: 1354 ft
TransAlt. 18000 ft.

Airport Communications:
DULUTH APP/DEP:125.45
ASOS:126.425
DULUTH CLNC DEL:127.4
PRINCETON RDO:122.6
CTAF/UNICOM:123

KHIB Zoom In..

If you have problems with the map follow the link
https://www.worldairports.se/pages/airport.php?
ICAO=KHIB

Runways:

(A) RW 04 length 3075 ft width 75 ft
---- / hdg 47

(B) RW 13 length 6758 ft width 150 ft
ILS 110.50 / hdg 130

(C) RW 22 length 3075 ft width 75 ft
---- / hdg 227

(D) RW 31 length 6758 ft width 150 ft
ILS 109.50 / hdg 310

Location; KHIB
Day. 06 / Time. 13.37 Zulu
* Altimeter: 30.27
* Temperature: -14° c. -6.8°f.
* Wind from: 330° Speed 11 kn.
Dewpoint: -16° c.
Visibility: 6 Statute Miles.
Clouds: Few 700 ft.
Clouds: Broken 1300 ft.
Conditions: Mist.

KHIB 061337Z AUTO 33011KT 6SM BR FEW007 BKN013 M14/M16 A3027 RMK AO2 SNE18 P0000 T11391161


Wind From 330°
Speed 11 kn.

 
 
jpsmedia worldairports.se 2019   terms of use